sensor_id;sensor_type;location;lat;lon;timestamp;temperature;humidity
19555;DHT22;9924;50.828;6.440;2024-02-26T00:01:01;6.40;99.90
19555;DHT22;9924;50.828;6.440;2024-02-26T00:03:27;6.40;99.90
19555;DHT22;9924;50.828;6.440;2024-02-26T00:05:53;6.40;99.90
19555;DHT22;9924;50.828;6.440;2024-02-26T00:08:19;6.40;99.90
19555;DHT22;9924;50.828;6.440;2024-02-26T00:10:44;6.30;99.90
19555;DHT22;9924;50.828;6.440;2024-02-26T00:13:10;6.30;99.90
19555;DHT22;9924;50.828;6.440;2024-02-26T00:15:36;6.30;99.90
19555;DHT22;9924;50.828;6.440;2024-02-26T00:18:01;6.30;99.90
19555;DHT22;9924;50.828;6.440;2024-02-26T00:20:27;6.30;99.90
19555;DHT22;9924;50.828;6.440;2024-02-26T00:22:53;6.30;99.90
19555;DHT22;9924;50.828;6.440;2024-02-26T00:25:19;6.30;99.90
19555;DHT22;9924;50.828;6.440;2024-02-26T00:27:44;6.40;99.90
19555;DHT22;9924;50.828;6.440;2024-02-26T00:30:10;6.30;99.90
19555;DHT22;9924;50.828;6.440;2024-02-26T00:32:37;6.40;99.90
19555;DHT22;9924;50.828;6.440;2024-02-26T00:35:03;6.40;99.90
19555;DHT22;9924;50.828;6.440;2024-02-26T00:37:28;6.40;99.90
19555;DHT22;9924;50.828;6.440;2024-02-26T00:39:54;6.30;99.90
19555;DHT22;9924;50.828;6.440;2024-02-26T00:42:20;6.30;99.90
19555;DHT22;9924;50.828;6.440;2024-02-26T00:44:45;6.40;99.90
19555;DHT22;9924;50.828;6.440;2024-02-26T00:47:12;6.40;99.90
19555;DHT22;9924;50.828;6.440;2024-02-26T00:49:37;6.40;99.90
19555;DHT22;9924;50.828;6.440;2024-02-26T00:52:03;6.30;99.90
19555;DHT22;9924;50.828;6.440;2024-02-26T00:54:29;6.30;99.90
19555;DHT22;9924;50.828;6.440;2024-02-26T00:56:55;6.30;99.90
19555;DHT22;9924;50.828;6.440;2024-02-26T00:59:21;6.30;99.90
19555;DHT22;9924;50.828;6.440;2024-02-26T01:01:47;6.20;99.90
19555;DHT22;9924;50.828;6.440;2024-02-26T01:04:12;6.20;99.90
19555;DHT22;9924;50.828;6.440;2024-02-26T01:06:38;6.20;99.90
19555;DHT22;9924;50.828;6.440;2024-02-26T01:09:04;6.20;99.90
19555;DHT22;9924;50.828;6.440;2024-02-26T01:11:29;6.20;99.90
19555;DHT22;9924;50.828;6.440;2024-02-26T01:13:55;6.30;99.90
19555;DHT22;9924;50.828;6.440;2024-02-26T01:16:23;6.20;99.90
19555;DHT22;9924;50.828;6.440;2024-02-26T01:18:49;6.20;99.90
19555;DHT22;9924;50.828;6.440;2024-02-26T01:21:14;6.20;99.90
19555;DHT22;9924;50.828;6.440;2024-02-26T01:23:40;6.20;99.90
19555;DHT22;9924;50.828;6.440;2024-02-26T01:26:06;6.20;99.90
19555;DHT22;9924;50.828;6.440;2024-02-26T01:28:31;6.20;99.90
19555;DHT22;9924;50.828;6.440;2024-02-26T01:30:57;6.20;99.90
19555;DHT22;9924;50.828;6.440;2024-02-26T01:33:25;6.20;99.90
19555;DHT22;9924;50.828;6.440;2024-02-26T01:35:51;6.10;99.90
19555;DHT22;9924;50.828;6.440;2024-02-26T01:38:18;6.20;99.90
19555;DHT22;9924;50.828;6.440;2024-02-26T01:40:44;6.20;99.90
19555;DHT22;9924;50.828;6.440;2024-02-26T01:43:09;6.20;99.90
19555;DHT22;9924;50.828;6.440;2024-02-26T01:45:35;6.20;99.90
19555;DHT22;9924;50.828;6.440;2024-02-26T01:48:01;6.20;99.90
19555;DHT22;9924;50.828;6.440;2024-02-26T01:50:27;6.20;99.90
19555;DHT22;9924;50.828;6.440;2024-02-26T01:52:54;6.20;99.90
19555;DHT22;9924;50.828;6.440;2024-02-26T01:55:22;6.20;99.90
19555;DHT22;9924;50.828;6.440;2024-02-26T01:57:50;6.10;99.90
19555;DHT22;9924;50.828;6.440;2024-02-26T02:00:18;6.20;99.90
19555;DHT22;9924;50.828;6.440;2024-02-26T02:02:44;6.20;99.90
19555;DHT22;9924;50.828;6.440;2024-02-26T02:05:12;6.20;99.90
19555;DHT22;9924;50.828;6.440;2024-02-26T02:07:40;6.20;99.90
19555;DHT22;9924;50.828;6.440;2024-02-26T02:10:07;6.20;99.90
19555;DHT22;9924;50.828;6.440;2024-02-26T02:12:33;6.20;99.90
19555;DHT22;9924;50.828;6.440;2024-02-26T02:15:00;6.20;99.90
19555;DHT22;9924;50.828;6.440;2024-02-26T02:17:27;6.20;99.90
19555;DHT22;9924;50.828;6.440;2024-02-26T02:19:53;6.20;99.90
19555;DHT22;9924;50.828;6.440;2024-02-26T02:22:19;6.20;99.90
19555;DHT22;9924;50.828;6.440;2024-02-26T02:24:45;6.20;99.90
19555;DHT22;9924;50.828;6.440;2024-02-26T02:27:11;6.20;99.90
19555;DHT22;9924;50.828;6.440;2024-02-26T02:29:37;6.20;99.90
19555;DHT22;9924;50.828;6.440;2024-02-26T02:32:03;6.20;99.90
19555;DHT22;9924;50.828;6.440;2024-02-26T02:34:31;6.20;99.90
19555;DHT22;9924;50.828;6.440;2024-02-26T02:36:57;6.20;99.90
19555;DHT22;9924;50.828;6.440;2024-02-26T02:39:23;6.20;99.90
19555;DHT22;9924;50.828;6.440;2024-02-26T02:41:48;6.20;99.90
19555;DHT22;9924;50.828;6.440;2024-02-26T02:44:14;6.20;99.90
19555;DHT22;9924;50.828;6.440;2024-02-26T02:46:40;6.20;99.90
19555;DHT22;9924;50.828;6.440;2024-02-26T02:49:09;6.20;99.90
19555;DHT22;9924;50.828;6.440;2024-02-26T02:51:36;6.20;99.90
19555;DHT22;9924;50.828;6.440;2024-02-26T02:54:02;6.20;99.90
19555;DHT22;9924;50.828;6.440;2024-02-26T02:56:28;6.20;99.90
19555;DHT22;9924;50.828;6.440;2024-02-26T02:58:54;6.20;99.90
19555;DHT22;9924;50.828;6.440;2024-02-26T03:01:19;6.20;99.90
19555;DHT22;9924;50.828;6.440;2024-02-26T03:03:45;6.10;99.90
19555;DHT22;9924;50.828;6.440;2024-02-26T03:06:11;6.10;99.90
19555;DHT22;9924;50.828;6.440;2024-02-26T03:08:36;6.10;99.90
19555;DHT22;9924;50.828;6.440;2024-02-26T03:11:05;6.10;99.90
19555;DHT22;9924;50.828;6.440;2024-02-26T03:13:31;6.10;99.90
19555;DHT22;9924;50.828;6.440;2024-02-26T03:15:57;6.10;99.90
19555;DHT22;9924;50.828;6.440;2024-02-26T03:18:22;6.10;99.90
19555;DHT22;9924;50.828;6.440;2024-02-26T03:20:49;6.10;99.90
19555;DHT22;9924;50.828;6.440;2024-02-26T03:23:15;6.10;99.90
19555;DHT22;9924;50.828;6.440;2024-02-26T03:25:44;6.10;99.90
19555;DHT22;9924;50.828;6.440;2024-02-26T03:28:11;6.10;99.90
19555;DHT22;9924;50.828;6.440;2024-02-26T03:30:38;6.10;99.90
19555;DHT22;9924;50.828;6.440;2024-02-26T03:33:03;6.10;99.90
19555;DHT22;9924;50.828;6.440;2024-02-26T03:35:29;6.10;99.90
19555;DHT22;9924;50.828;6.440;2024-02-26T03:37:55;6.10;99.90
19555;DHT22;9924;50.828;6.440;2024-02-26T03:40:21;6.20;99.90
19555;DHT22;9924;50.828;6.440;2024-02-26T03:42:46;6.20;99.90
19555;DHT22;9924;50.828;6.440;2024-02-26T03:45:12;6.20;99.90
19555;DHT22;9924;50.828;6.440;2024-02-26T03:47:38;6.20;99.90
19555;DHT22;9924;50.828;6.440;2024-02-26T03:50:07;6.10;99.90
19555;DHT22;9924;50.828;6.440;2024-02-26T03:52:33;6.10;99.90
19555;DHT22;9924;50.828;6.440;2024-02-26T03:54:59;6.20;99.90
19555;DHT22;9924;50.828;6.440;2024-02-26T03:57:25;6.10;99.90
19555;DHT22;9924;50.828;6.440;2024-02-26T03:59:51;6.20;99.90
19555;DHT22;9924;50.828;6.440;2024-02-26T04:02:17;6.20;99.90
19555;DHT22;9924;50.828;6.440;2024-02-26T04:04:45;6.20;99.90
19555;DHT22;9924;50.828;6.440;2024-02-26T04:07:11;6.10;99.90
19555;DHT22;9924;50.828;6.440;2024-02-26T04:09:37;6.10;99.90
19555;DHT22;9924;50.828;6.440;2024-02-26T04:12:03;6.20;99.90
19555;DHT22;9924;50.828;6.440;2024-02-26T04:14:29;6.10;99.90
19555;DHT22;9924;50.828;6.440;2024-02-26T04:16:54;6.10;99.90
19555;DHT22;9924;50.828;6.440;2024-02-26T04:19:20;6.10;99.90
19555;DHT22;9924;50.828;6.440;2024-02-26T04:21:46;6.10;99.90
19555;DHT22;9924;50.828;6.440;2024-02-26T04:24:12;6.10;99.90
19555;DHT22;9924;50.828;6.440;2024-02-26T04:26:37;6.10;99.90
19555;DHT22;9924;50.828;6.440;2024-02-26T04:29:03;6.10;99.90
19555;DHT22;9924;50.828;6.440;2024-02-26T04:31:29;6.10;99.90
19555;DHT22;9924;50.828;6.440;2024-02-26T04:33:55;6.10;99.90
19555;DHT22;9924;50.828;6.440;2024-02-26T04:36:21;6.10;99.90
19555;DHT22;9924;50.828;6.440;2024-02-26T04:38:47;6.10;99.90
19555;DHT22;9924;50.828;6.440;2024-02-26T04:41:13;6.10;99.90
19555;DHT22;9924;50.828;6.440;2024-02-26T04:43:39;6.10;99.90
19555;DHT22;9924;50.828;6.440;2024-02-26T04:46:10;6.00;99.90
19555;DHT22;9924;50.828;6.440;2024-02-26T04:48:36;6.00;99.90
19555;DHT22;9924;50.828;6.440;2024-02-26T04:51:02;6.00;99.90
19555;DHT22;9924;50.828;6.440;2024-02-26T04:53:28;6.00;99.90
19555;DHT22;9924;50.828;6.440;2024-02-26T04:55:54;6.00;99.90
19555;DHT22;9924;50.828;6.440;2024-02-26T04:58:20;6.00;99.90
19555;DHT22;9924;50.828;6.440;2024-02-26T05:00:46;6.00;99.90
19555;DHT22;9924;50.828;6.440;2024-02-26T05:03:12;6.00;99.90
19555;DHT22;9924;50.828;6.440;2024-02-26T05:05:43;6.00;99.90
19555;DHT22;9924;50.828;6.440;2024-02-26T05:08:08;6.00;99.90
19555;DHT22;9924;50.828;6.440;2024-02-26T05:10:34;6.00;99.90
19555;DHT22;9924;50.828;6.440;2024-02-26T05:13:05;6.00;99.90
19555;DHT22;9924;50.828;6.440;2024-02-26T05:15:30;6.00;99.90
19555;DHT22;9924;50.828;6.440;2024-02-26T05:17:56;6.00;99.90
19555;DHT22;9924;50.828;6.440;2024-02-26T05:20:22;6.00;99.90
19555;DHT22;9924;50.828;6.440;2024-02-26T05:22:48;6.00;99.90
19555;DHT22;9924;50.828;6.440;2024-02-26T05:25:16;6.00;99.90
19555;DHT22;9924;50.828;6.440;2024-02-26T05:27:43;6.00;99.90
19555;DHT22;9924;50.828;6.440;2024-02-26T05:30:10;6.00;99.90
19555;DHT22;9924;50.828;6.440;2024-02-26T05:32:36;6.00;99.90
19555;DHT22;9924;50.828;6.440;2024-02-26T05:35:02;6.00;99.90
19555;DHT22;9924;50.828;6.440;2024-02-26T05:37:30;6.00;99.90
19555;DHT22;9924;50.828;6.440;2024-02-26T05:39:56;6.00;99.90
19555;DHT22;9924;50.828;6.440;2024-02-26T05:42:22;6.00;99.90
19555;DHT22;9924;50.828;6.440;2024-02-26T05:44:48;6.00;99.90
19555;DHT22;9924;50.828;6.440;2024-02-26T05:47:13;6.00;99.90
19555;DHT22;9924;50.828;6.440;2024-02-26T05:49:39;6.00;99.90
19555;DHT22;9924;50.828;6.440;2024-02-26T05:52:05;6.00;99.90
19555;DHT22;9924;50.828;6.440;2024-02-26T05:54:31;6.00;99.90
19555;DHT22;9924;50.828;6.440;2024-02-26T05:56:57;6.00;99.90
19555;DHT22;9924;50.828;6.440;2024-02-26T05:59:23;6.00;99.90
19555;DHT22;9924;50.828;6.440;2024-02-26T06:01:49;6.00;99.90
19555;DHT22;9924;50.828;6.440;2024-02-26T06:04:15;6.00;99.90
19555;DHT22;9924;50.828;6.440;2024-02-26T06:06:44;6.00;99.90
19555;DHT22;9924;50.828;6.440;2024-02-26T06:09:09;6.00;99.90
19555;DHT22;9924;50.828;6.440;2024-02-26T06:11:36;6.10;99.90
19555;DHT22;9924;50.828;6.440;2024-02-26T06:14:02;6.00;99.90
19555;DHT22;9924;50.828;6.440;2024-02-26T06:16:28;6.00;99.90
19555;DHT22;9924;50.828;6.440;2024-02-26T06:18:54;6.00;99.90
19555;DHT22;9924;50.828;6.440;2024-02-26T06:21:20;6.00;99.90
19555;DHT22;9924;50.828;6.440;2024-02-26T06:23:46;6.00;99.90
19555;DHT22;9924;50.828;6.440;2024-02-26T06:26:12;6.00;99.90
19555;DHT22;9924;50.828;6.440;2024-02-26T06:28:37;6.00;99.90
19555;DHT22;9924;50.828;6.440;2024-02-26T06:31:06;6.00;99.90
19555;DHT22;9924;50.828;6.440;2024-02-26T06:33:32;6.00;99.90
19555;DHT22;9924;50.828;6.440;2024-02-26T06:35:58;6.00;99.90
19555;DHT22;9924;50.828;6.440;2024-02-26T06:38:24;6.00;99.90
19555;DHT22;9924;50.828;6.440;2024-02-26T06:40:50;6.00;99.90
19555;DHT22;9924;50.828;6.440;2024-02-26T06:43:15;6.00;99.90
19555;DHT22;9924;50.828;6.440;2024-02-26T06:45:41;6.00;99.90
19555;DHT22;9924;50.828;6.440;2024-02-26T06:48:07;6.00;99.90
19555;DHT22;9924;50.828;6.440;2024-02-26T06:50:33;6.00;99.90
19555;DHT22;9924;50.828;6.440;2024-02-26T06:52:59;6.00;99.90
19555;DHT22;9924;50.828;6.440;2024-02-26T06:55:24;6.00;99.90
19555;DHT22;9924;50.828;6.440;2024-02-26T06:57:50;6.00;99.90
19555;DHT22;9924;50.828;6.440;2024-02-26T07:00:16;6.00;99.90
19555;DHT22;9924;50.828;6.440;2024-02-26T07:02:43;6.00;99.90
19555;DHT22;9924;50.828;6.440;2024-02-26T07:05:09;6.00;99.90
19555;DHT22;9924;50.828;6.440;2024-02-26T07:07:35;6.00;99.90
19555;DHT22;9924;50.828;6.440;2024-02-26T07:10:01;6.00;99.90
19555;DHT22;9924;50.828;6.440;2024-02-26T07:12:30;5.90;99.90
19555;DHT22;9924;50.828;6.440;2024-02-26T07:14:55;6.00;99.90
19555;DHT22;9924;50.828;6.440;2024-02-26T07:17:21;6.00;99.90
19555;DHT22;9924;50.828;6.440;2024-02-26T07:19:47;6.00;99.90
19555;DHT22;9924;50.828;6.440;2024-02-26T07:22:13;6.00;99.90
19555;DHT22;9924;50.828;6.440;2024-02-26T07:24:39;6.00;99.90
19555;DHT22;9924;50.828;6.440;2024-02-26T07:27:07;6.00;99.90
19555;DHT22;9924;50.828;6.440;2024-02-26T07:29:33;6.00;99.90
19555;DHT22;9924;50.828;6.440;2024-02-26T07:31:59;6.00;99.90
19555;DHT22;9924;50.828;6.440;2024-02-26T07:34:25;6.00;99.90
19555;DHT22;9924;50.828;6.440;2024-02-26T07:36:55;6.00;99.90
19555;DHT22;9924;50.828;6.440;2024-02-26T07:39:21;6.00;99.90
19555;DHT22;9924;50.828;6.440;2024-02-26T07:41:47;6.00;99.90
19555;DHT22;9924;50.828;6.440;2024-02-26T07:44:15;6.00;99.90
19555;DHT22;9924;50.828;6.440;2024-02-26T07:46:41;6.00;99.90
19555;DHT22;9924;50.828;6.440;2024-02-26T07:49:06;6.00;99.90
19555;DHT22;9924;50.828;6.440;2024-02-26T07:51:33;6.00;99.90
19555;DHT22;9924;50.828;6.440;2024-02-26T07:54:00;6.00;99.90
19555;DHT22;9924;50.828;6.440;2024-02-26T07:56:26;6.00;99.90
19555;DHT22;9924;50.828;6.440;2024-02-26T07:58:52;6.00;99.90
19555;DHT22;9924;50.828;6.440;2024-02-26T08:01:18;6.00;99.90
19555;DHT22;9924;50.828;6.440;2024-02-26T08:03:43;6.00;99.90
19555;DHT22;9924;50.828;6.440;2024-02-26T08:06:09;6.00;99.90
19555;DHT22;9924;50.828;6.440;2024-02-26T08:08:35;6.00;99.90
19555;DHT22;9924;50.828;6.440;2024-02-26T08:11:01;6.00;99.90
19555;DHT22;9924;50.828;6.440;2024-02-26T08:13:26;6.10;99.90
19555;DHT22;9924;50.828;6.440;2024-02-26T08:15:52;6.00;99.90
19555;DHT22;9924;50.828;6.440;2024-02-26T08:18:18;6.00;99.90
19555;DHT22;9924;50.828;6.440;2024-02-26T08:20:44;6.00;99.90
19555;DHT22;9924;50.828;6.440;2024-02-26T08:23:10;6.00;99.90
19555;DHT22;9924;50.828;6.440;2024-02-26T08:25:36;6.00;99.90
19555;DHT22;9924;50.828;6.440;2024-02-26T08:28:02;6.00;99.90
19555;DHT22;9924;50.828;6.440;2024-02-26T08:30:28;6.00;99.90
19555;DHT22;9924;50.828;6.440;2024-02-26T08:32:54;6.10;99.90
19555;DHT22;9924;50.828;6.440;2024-02-26T08:35:20;6.00;99.90
19555;DHT22;9924;50.828;6.440;2024-02-26T08:37:46;6.00;99.90
19555;DHT22;9924;50.828;6.440;2024-02-26T08:40:12;6.00;99.90
19555;DHT22;9924;50.828;6.440;2024-02-26T08:42:38;6.00;99.90
19555;DHT22;9924;50.828;6.440;2024-02-26T08:45:05;6.00;99.90
19555;DHT22;9924;50.828;6.440;2024-02-26T08:47:31;6.00;99.90
19555;DHT22;9924;50.828;6.440;2024-02-26T08:49:58;6.00;99.90
19555;DHT22;9924;50.828;6.440;2024-02-26T08:52:23;6.00;99.90
19555;DHT22;9924;50.828;6.440;2024-02-26T08:54:49;6.00;99.90
19555;DHT22;9924;50.828;6.440;2024-02-26T08:57:15;6.00;99.90
19555;DHT22;9924;50.828;6.440;2024-02-26T08:59:41;6.10;99.90
19555;DHT22;9924;50.828;6.440;2024-02-26T09:02:07;6.10;99.90
19555;DHT22;9924;50.828;6.440;2024-02-26T09:04:35;6.10;99.90
19555;DHT22;9924;50.828;6.440;2024-02-26T09:07:01;6.10;99.90
19555;DHT22;9924;50.828;6.440;2024-02-26T09:09:27;6.10;99.90
19555;DHT22;9924;50.828;6.440;2024-02-26T09:11:53;6.10;99.90
19555;DHT22;9924;50.828;6.440;2024-02-26T09:14:21;6.10;99.90
19555;DHT22;9924;50.828;6.440;2024-02-26T09:16:46;6.20;99.90
19555;DHT22;9924;50.828;6.440;2024-02-26T09:19:14;6.20;99.90
19555;DHT22;9924;50.828;6.440;2024-02-26T09:21:44;6.20;99.90
19555;DHT22;9924;50.828;6.440;2024-02-26T09:24:11;6.20;99.90
19555;DHT22;9924;50.828;6.440;2024-02-26T09:26:37;6.20;99.90
19555;DHT22;9924;50.828;6.440;2024-02-26T09:29:03;6.20;99.90
19555;DHT22;9924;50.828;6.440;2024-02-26T09:31:30;6.20;99.90
19555;DHT22;9924;50.828;6.440;2024-02-26T09:33:56;6.20;99.90
19555;DHT22;9924;50.828;6.440;2024-02-26T09:36:21;6.20;99.90
19555;DHT22;9924;50.828;6.440;2024-02-26T09:38:47;6.20;99.90
19555;DHT22;9924;50.828;6.440;2024-02-26T09:41:16;6.20;99.90
19555;DHT22;9924;50.828;6.440;2024-02-26T09:43:45;6.20;99.90
19555;DHT22;9924;50.828;6.440;2024-02-26T09:46:11;6.30;99.90
19555;DHT22;9924;50.828;6.440;2024-02-26T09:48:37;6.30;99.90
19555;DHT22;9924;50.828;6.440;2024-02-26T09:51:04;6.30;99.90
19555;DHT22;9924;50.828;6.440;2024-02-26T09:53:32;6.30;99.90
19555;DHT22;9924;50.828;6.440;2024-02-26T09:56:00;6.30;99.90
19555;DHT22;9924;50.828;6.440;2024-02-26T09:58:31;6.40;99.90
19555;DHT22;9924;50.828;6.440;2024-02-26T10:00:58;6.40;99.90
19555;DHT22;9924;50.828;6.440;2024-02-26T10:03:31;6.40;99.90
19555;DHT22;9924;50.828;6.440;2024-02-26T10:06:02;6.50;99.90
19555;DHT22;9924;50.828;6.440;2024-02-26T10:08:31;6.60;99.90
19555;DHT22;9924;50.828;6.440;2024-02-26T10:10:57;6.70;99.90
19555;DHT22;9924;50.828;6.440;2024-02-26T10:13:23;6.70;99.90
19555;DHT22;9924;50.828;6.440;2024-02-26T10:15:49;6.70;99.90
19555;DHT22;9924;50.828;6.440;2024-02-26T10:18:15;6.70;99.90
19555;DHT22;9924;50.828;6.440;2024-02-26T10:20:41;6.70;99.90
19555;DHT22;9924;50.828;6.440;2024-02-26T10:23:06;6.80;99.90
19555;DHT22;9924;50.828;6.440;2024-02-26T10:25:32;6.80;99.90
19555;DHT22;9924;50.828;6.440;2024-02-26T10:28:01;6.80;99.90
19555;DHT22;9924;50.828;6.440;2024-02-26T10:30:28;6.70;99.90
19555;DHT22;9924;50.828;6.440;2024-02-26T10:32:54;6.70;99.90
19555;DHT22;9924;50.828;6.440;2024-02-26T10:35:20;6.70;99.90
19555;DHT22;9924;50.828;6.440;2024-02-26T10:37:46;6.70;99.90
19555;DHT22;9924;50.828;6.440;2024-02-26T10:40:13;6.70;99.90
19555;DHT22;9924;50.828;6.440;2024-02-26T10:42:40;6.70;99.90
19555;DHT22;9924;50.828;6.440;2024-02-26T10:45:07;6.70;99.90
19555;DHT22;9924;50.828;6.440;2024-02-26T10:47:37;6.70;99.90
19555;DHT22;9924;50.828;6.440;2024-02-26T10:50:06;6.70;99.90
19555;DHT22;9924;50.828;6.440;2024-02-26T10:52:33;6.80;99.90
19555;DHT22;9924;50.828;6.440;2024-02-26T10:55:04;6.80;99.90
19555;DHT22;9924;50.828;6.440;2024-02-26T10:57:42;6.90;99.90
19555;DHT22;9924;50.828;6.440;2024-02-26T11:00:13;6.90;99.90
19555;DHT22;9924;50.828;6.440;2024-02-26T11:02:40;6.90;99.90
19555;DHT22;9924;50.828;6.440;2024-02-26T11:05:07;6.90;99.90
19555;DHT22;9924;50.828;6.440;2024-02-26T11:07:36;6.90;99.90
19555;DHT22;9924;50.828;6.440;2024-02-26T11:10:04;6.90;99.90
19555;DHT22;9924;50.828;6.440;2024-02-26T11:12:32;6.80;99.90
19555;DHT22;9924;50.828;6.440;2024-02-26T11:14:58;6.80;99.90
19555;DHT22;9924;50.828;6.440;2024-02-26T11:17:26;6.80;99.90
19555;DHT22;9924;50.828;6.440;2024-02-26T11:19:55;6.80;99.90
19555;DHT22;9924;50.828;6.440;2024-02-26T11:22:21;6.80;99.90
19555;DHT22;9924;50.828;6.440;2024-02-26T11:24:48;6.80;99.90
19555;DHT22;9924;50.828;6.440;2024-02-26T11:27:16;6.80;99.90
19555;DHT22;9924;50.828;6.440;2024-02-26T11:29:48;6.70;99.90
19555;DHT22;9924;50.828;6.440;2024-02-26T11:32:15;6.80;99.90
19555;DHT22;9924;50.828;6.440;2024-02-26T11:34:41;6.80;99.90
19555;DHT22;9924;50.828;6.440;2024-02-26T11:37:12;6.70;99.90
19555;DHT22;9924;50.828;6.440;2024-02-26T11:39:40;6.80;99.90
19555;DHT22;9924;50.828;6.440;2024-02-26T11:42:09;6.80;99.90
19555;DHT22;9924;50.828;6.440;2024-02-26T11:44:36;6.80;99.90
19555;DHT22;9924;50.828;6.440;2024-02-26T11:47:12;6.80;99.90
19555;DHT22;9924;50.828;6.440;2024-02-26T11:49:42;6.80;99.90
19555;DHT22;9924;50.828;6.440;2024-02-26T11:52:08;6.90;99.90
19555;DHT22;9924;50.828;6.440;2024-02-26T11:54:39;6.80;99.90
19555;DHT22;9924;50.828;6.440;2024-02-26T11:57:23;6.80;99.90
19555;DHT22;9924;50.828;6.440;2024-02-26T11:59:50;6.90;99.90
19555;DHT22;9924;50.828;6.440;2024-02-26T12:02:43;6.90;99.90
19555;DHT22;9924;50.828;6.440;2024-02-26T12:05:15;6.90;99.90
19555;DHT22;9924;50.828;6.440;2024-02-26T12:08:03;6.90;99.90
19555;DHT22;9924;50.828;6.440;2024-02-26T12:10:33;7.00;99.90
19555;DHT22;9924;50.828;6.440;2024-02-26T12:13:29;7.00;99.90
19555;DHT22;9924;50.828;6.440;2024-02-26T12:15:57;7.00;99.90
19555;DHT22;9924;50.828;6.440;2024-02-26T12:18:23;7.00;99.90
19555;DHT22;9924;50.828;6.440;2024-02-26T12:21:04;7.00;99.90
19555;DHT22;9924;50.828;6.440;2024-02-26T12:23:30;7.10;99.90
19555;DHT22;9924;50.828;6.440;2024-02-26T12:25:59;7.20;99.90
19555;DHT22;9924;50.828;6.440;2024-02-26T12:28:31;7.20;99.90
19555;DHT22;9924;50.828;6.440;2024-02-26T12:30:57;7.30;99.90
19555;DHT22;9924;50.828;6.440;2024-02-26T12:33:25;7.40;99.90
19555;DHT22;9924;50.828;6.440;2024-02-26T12:35:52;7.40;99.90
19555;DHT22;9924;50.828;6.440;2024-02-26T12:38:18;7.30;99.90
19555;DHT22;9924;50.828;6.440;2024-02-26T12:40:45;7.30;99.90
19555;DHT22;9924;50.828;6.440;2024-02-26T12:43:11;7.20;99.90
19555;DHT22;9924;50.828;6.440;2024-02-26T12:45:43;7.20;99.90
19555;DHT22;9924;50.828;6.440;2024-02-26T12:48:12;7.20;99.90
19555;DHT22;9924;50.828;6.440;2024-02-26T12:50:38;7.10;99.90
19555;DHT22;9924;50.828;6.440;2024-02-26T12:53:04;7.10;99.90
19555;DHT22;9924;50.828;6.440;2024-02-26T12:55:31;7.10;99.90
19555;DHT22;9924;50.828;6.440;2024-02-26T12:57:59;7.10;99.90
19555;DHT22;9924;50.828;6.440;2024-02-26T13:00:27;7.10;99.90
19555;DHT22;9924;50.828;6.440;2024-02-26T13:02:54;7.00;99.90
19555;DHT22;9924;50.828;6.440;2024-02-26T13:05:21;7.10;99.90
19555;DHT22;9924;50.828;6.440;2024-02-26T13:07:48;7.10;99.90
19555;DHT22;9924;50.828;6.440;2024-02-26T13:10:14;7.10;99.90
19555;DHT22;9924;50.828;6.440;2024-02-26T13:12:47;7.20;99.90
19555;DHT22;9924;50.828;6.440;2024-02-26T13:15:17;7.20;99.90
19555;DHT22;9924;50.828;6.440;2024-02-26T13:17:44;7.20;99.90
19555;DHT22;9924;50.828;6.440;2024-02-26T13:20:10;7.20;99.90
19555;DHT22;9924;50.828;6.440;2024-02-26T13:22:37;7.20;99.90
19555;DHT22;9924;50.828;6.440;2024-02-26T13:25:03;7.20;99.90
19555;DHT22;9924;50.828;6.440;2024-02-26T13:27:29;7.10;99.90
19555;DHT22;9924;50.828;6.440;2024-02-26T13:30:11;7.10;99.90
19555;DHT22;9924;50.828;6.440;2024-02-26T13:32:39;7.10;99.90
19555;DHT22;9924;50.828;6.440;2024-02-26T13:35:09;7.00;99.90
19555;DHT22;9924;50.828;6.440;2024-02-26T13:37:36;7.00;99.90
19555;DHT22;9924;50.828;6.440;2024-02-26T13:40:20;7.00;99.90
19555;DHT22;9924;50.828;6.440;2024-02-26T13:42:46;7.00;99.90
19555;DHT22;9924;50.828;6.440;2024-02-26T13:45:13;7.10;99.90
19555;DHT22;9924;50.828;6.440;2024-02-26T13:47:39;7.10;99.90
19555;DHT22;9924;50.828;6.440;2024-02-26T13:50:06;7.10;99.90
19555;DHT22;9924;50.828;6.440;2024-02-26T13:52:31;7.10;99.90
19555;DHT22;9924;50.828;6.440;2024-02-26T13:54:58;7.00;99.90
19555;DHT22;9924;50.828;6.440;2024-02-26T13:57:24;7.00;99.90
19555;DHT22;9924;50.828;6.440;2024-02-26T13:59:51;7.00;99.90
19555;DHT22;9924;50.828;6.440;2024-02-26T14:02:17;6.90;99.90
19555;DHT22;9924;50.828;6.440;2024-02-26T14:04:43;7.00;99.90
19555;DHT22;9924;50.828;6.440;2024-02-26T14:07:09;7.00;99.90
19555;DHT22;9924;50.828;6.440;2024-02-26T14:09:36;7.00;99.90
19555;DHT22;9924;50.828;6.440;2024-02-26T14:12:01;6.90;99.90
19555;DHT22;9924;50.828;6.440;2024-02-26T14:14:30;7.00;99.90
19555;DHT22;9924;50.828;6.440;2024-02-26T14:16:58;7.00;99.90
19555;DHT22;9924;50.828;6.440;2024-02-26T14:19:24;7.00;99.90
19555;DHT22;9924;50.828;6.440;2024-02-26T14:21:50;7.00;99.90
19555;DHT22;9924;50.828;6.440;2024-02-26T14:24:15;7.00;99.90
19555;DHT22;9924;50.828;6.440;2024-02-26T14:26:42;7.10;99.90
19555;DHT22;9924;50.828;6.440;2024-02-26T14:29:08;7.10;99.90
19555;DHT22;9924;50.828;6.440;2024-02-26T14:31:33;7.10;99.90
19555;DHT22;9924;50.828;6.440;2024-02-26T14:33:59;7.10;99.90
19555;DHT22;9924;50.828;6.440;2024-02-26T14:36:25;7.10;99.90
19555;DHT22;9924;50.828;6.440;2024-02-26T14:38:51;7.00;99.90
19555;DHT22;9924;50.828;6.440;2024-02-26T14:41:17;7.00;99.90
19555;DHT22;9924;50.828;6.440;2024-02-26T14:43:43;7.10;99.90
19555;DHT22;9924;50.828;6.440;2024-02-26T14:46:08;7.00;99.90
19555;DHT22;9924;50.828;6.440;2024-02-26T14:48:34;7.00;99.90
19555;DHT22;9924;50.828;6.440;2024-02-26T14:51:00;7.00;99.90
19555;DHT22;9924;50.828;6.440;2024-02-26T14:53:26;7.00;99.90
19555;DHT22;9924;50.828;6.440;2024-02-26T14:55:52;7.00;99.90
19555;DHT22;9924;50.828;6.440;2024-02-26T14:58:18;7.00;99.90
19555;DHT22;9924;50.828;6.440;2024-02-26T15:00:44;7.00;99.90
19555;DHT22;9924;50.828;6.440;2024-02-26T15:03:09;7.00;99.90
19555;DHT22;9924;50.828;6.440;2024-02-26T15:05:35;7.10;99.90
19555;DHT22;9924;50.828;6.440;2024-02-26T15:08:01;7.10;99.90
19555;DHT22;9924;50.828;6.440;2024-02-26T15:10:28;7.20;99.90
19555;DHT22;9924;50.828;6.440;2024-02-26T15:12:56;7.20;99.90
19555;DHT22;9924;50.828;6.440;2024-02-26T15:15:22;7.10;99.90
19555;DHT22;9924;50.828;6.440;2024-02-26T15:17:48;7.00;99.90
19555;DHT22;9924;50.828;6.440;2024-02-26T15:20:18;7.00;99.90
19555;DHT22;9924;50.828;6.440;2024-02-26T15:22:44;7.00;99.90
19555;DHT22;9924;50.828;6.440;2024-02-26T15:25:10;7.00;99.90
19555;DHT22;9924;50.828;6.440;2024-02-26T15:27:35;7.00;99.90
19555;DHT22;9924;50.828;6.440;2024-02-26T15:30:02;7.00;99.90
19555;DHT22;9924;50.828;6.440;2024-02-26T15:32:28;7.00;99.90
19555;DHT22;9924;50.828;6.440;2024-02-26T15:34:54;6.90;99.90
19555;DHT22;9924;50.828;6.440;2024-02-26T15:37:20;7.00;99.90
19555;DHT22;9924;50.828;6.440;2024-02-26T15:39:46;7.00;99.90
19555;DHT22;9924;50.828;6.440;2024-02-26T15:42:12;7.00;99.90
19555;DHT22;9924;50.828;6.440;2024-02-26T15:44:38;7.00;99.90
19555;DHT22;9924;50.828;6.440;2024-02-26T15:47:05;7.00;99.90
19555;DHT22;9924;50.828;6.440;2024-02-26T15:49:33;7.00;99.90
19555;DHT22;9924;50.828;6.440;2024-02-26T15:51:59;7.00;99.90
19555;DHT22;9924;50.828;6.440;2024-02-26T15:54:26;7.00;99.90
19555;DHT22;9924;50.828;6.440;2024-02-26T15:56:52;7.00;99.90
19555;DHT22;9924;50.828;6.440;2024-02-26T15:59:19;7.00;99.90